ěÝzenÝ letovÚho provozu ╚eskÚ republiky
Letiste: LKPD Aktualizace: 24.09.2020 16:30:26  UTC
 METAR LKPD 24.09. 16:30 ...
METAR LKPD 241630Z 00000KT CAVOK 21/14 Q1007 NOSIG RMK BLU BLU=
 TAF LKPD 24.09. 11:00 ...
TAF LKPD 241100Z 2412/2512 25010KT CAVOK      PROB40 TEMPO 2412/2417 27016KT 7000 SHRA SCT035TCU      BECMG 2417/2419 14006KT      TEMPO 2500/2512 14016G26KT      BECMG 2504/2506 8000 RA BKN020 OVC035      TEMPO 2507/2512 4000 RA BKN010 OVC020=